F/v_l'omerta — FHXG — position and weather

sailwx.info

Track history (hours):
 
Tides and Currents Weather Stations Pressure Air Temp Water Temp Dewpoint Dewpoint Depression Visibility Wind Speed Wind Dir Waves Ship Positions

F/v_l'omerta

Last reported at 2016-Jun-25 00:27 UTC. Time now 2016-Jun-25 14:12 UTC.
Position N 46°17' W 002°09'.

Length 18 m.

Type: Fishing. MMSI: 227903000.

Date/timePositionNaut miles runAvg speedWind from/ knotsBaromVisibWave heightAir tempDewpointWater temp
2016-Jun-25 00:27N 46°17' W 002°09'6 6.9
2016-Jun-24 23:33N 46°21' W 002°02'7 7.1
2016-Jun-24 22:33N 46°25' W 001°54'6 6.3
2016-Jun-24 21:33N 46°29' W 001°47'1 0.7
2016-Jun-24 20:33N 46°30' W 001°47'0 0.4
2016-Jun-24 19:33N 46°30' W 001°48'8 8.2
2016-Jun-24 18:33N 46°24' W 001°57'9 9.1
2016-Jun-24 17:33N 46°20' W 002°08'22 3.5
2016-Jun-24 11:13N 46°08' W 002°35'0 0.1
2016-Jun-24 08:26N 46°08' W 002°35'3 1.3
2016-Jun-24 06:21N 46°05' W 002°35'3 0.6
2016-Jun-24 01:23N 46°07' W 002°32'4 0.3
2016-Jun-23 14:16N 46°06' W 002°37'13 1.5
2016-Jun-23 05:33N 46°11' W 002°20'10 9.7
2016-Jun-23 04:33N 46°17' W 002°09'2 0.3
2016-Jun-22 23:23N 46°18' W 002°07'8 9.0
2016-Jun-22 22:28N 46°13' W 002°16'8 8.5
2016-Jun-22 21:33N 46°10' W 002°27'3 3.3
2016-Jun-22 20:33N 46°07' W 002°29'5 0.6
2016-Jun-22 12:20N 46°07' W 002°36'0 0.1
2016-Jun-22 10:32N 46°07' W 002°36'26 3.7
2016-Jun-22 03:23N 46°20' W 002°03'8 9.1
2016-Jun-22 02:33N 46°24' W 001°54'7 7.2
2016-Jun-22 01:33N 46°30' W 001°47'0 0.4
2016-Jun-22 00:33N 46°30' W 001°48'9 8.5
2016-Jun-21 23:33N 46°24' W 001°56'10 9.2
2016-Jun-21 22:29N 46°18' W 002°08'20 0.6
2016-Jun-20 12:29N 46°06' W 002°32'2 1.5
2016-Jun-20 11:13N 46°06' W 002°34'2 3.1
2016-Jun-20 10:28N 46°06' W 002°31'21 3.1
2016-Jun-20 03:33N 46°19' W 002°07'9 8.7
2016-Jun-20 02:33N 46°24' W 001°57'9 8.5
2016-Jun-20 01:33N 46°29' W 001°47'1 1.0
2016-Jun-20 00:33N 46°30' W 001°47'1 0.8
2016-Jun-19 23:33N 46°29' W 001°47'9 8.9
2016-Jun-19 22:33N 46°24' W 001°58'14 0.3
2016-Jun-18 03:24N 46°17' W 002°15'8 9.0
2016-Jun-18 02:33N 46°20' W 002°06'9 8.8
2016-Jun-18 01:33N 46°25' W 001°55'7 7.2
2016-Jun-18 00:33N 46°30' W 001°47'4 3.8
2016-Jun-17 23:33N 46°27' W 001°50'9 9.2
2016-Jun-17 22:32N 46°22' W 002°02'2 0.1
2016-Jun-17 02:33N 46°21' W 002°04'9 8.9
2016-Jun-17 01:33N 46°26' W 001°53'6 5.8
2016-Jun-17 00:33N 46°30' W 001°47'3 3.1
2016-Jun-16 23:33N 46°27' W 001°50'10 9.5
2016-Jun-16 22:33N 46°22' W 002°01'4 0.2
2016-Jun-16 02:33N 46°20' W 002°06'9 9.2
2016-Jun-16 01:33N 46°25' W 001°55'7 7.3
2016-Jun-16 00:33N 46°30' W 001°47'4 3.9
2016-Jun-15 23:33N 46°27' W 001°51'9 9.2
2016-Jun-15 22:33N 46°21' W 002°01'10 0.5
2016-Jun-15 03:16N 46°17' W 002°14'6 8.9
2016-Jun-15 02:33N 46°20' W 002°06'9 8.5
2016-Jun-15 01:33N 46°25' W 001°56'7 7.3
2016-Jun-15 00:33N 46°30' W 001°48'  
Track history (hours):
 
Tides and Currents Weather Stations Pressure Air Temp Water Temp Dewpoint Dewpoint Depression Visibility Wind Speed Wind Dir Waves Ship Positions

F/v_l'omerta

Last reported at 2016-Jun-25 00:27 UTC. Time now 2016-Jun-25 14:12 UTC.
Position N 46°17' W 002°09'.

Length 18 m.

Type: Fishing. MMSI: 227903000.

Date/timePositionNaut miles runAvg speedWind from/ knotsBaromVisibWave heightAir tempDewpointWater temp
2016-Jun-25 00:27N 46°17' W 002°09'6 6.9
2016-Jun-24 23:33N 46°21' W 002°02'7 7.1
2016-Jun-24 22:33N 46°25' W 001°54'6 6.3
2016-Jun-24 21:33N 46°29' W 001°47'1 0.7
2016-Jun-24 20:33N 46°30' W 001°47'0 0.4
2016-Jun-24 19:33N 46°30' W 001°48'8 8.2
2016-Jun-24 18:33N 46°24' W 001°57'9 9.1
2016-Jun-24 17:33N 46°20' W 002°08'22 3.5
2016-Jun-24 11:13N 46°08' W 002°35'0 0.1
2016-Jun-24 08:26N 46°08' W 002°35'3 1.3
2016-Jun-24 06:21N 46°05' W 002°35'3 0.6
2016-Jun-24 01:23N 46°07' W 002°32'4 0.3
2016-Jun-23 14:16N 46°06' W 002°37'13 1.5
2016-Jun-23 05:33N 46°11' W 002°20'10 9.7
2016-Jun-23 04:33N 46°17' W 002°09'2 0.3
2016-Jun-22 23:23N 46°18' W 002°07'8 9.0
2016-Jun-22 22:28N 46°13' W 002°16'8 8.5
2016-Jun-22 21:33N 46°10' W 002°27'3 3.3
2016-Jun-22 20:33N 46°07' W 002°29'5 0.6
2016-Jun-22 12:20N 46°07' W 002°36'0 0.1
2016-Jun-22 10:32N 46°07' W 002°36'26 3.7
2016-Jun-22 03:23N 46°20' W 002°03'8 9.1
2016-Jun-22 02:33N 46°24' W 001°54'7 7.2
2016-Jun-22 01:33N 46°30' W 001°47'0 0.4
2016-Jun-22 00:33N 46°30' W 001°48'9 8.5
2016-Jun-21 23:33N 46°24' W 001°56'10 9.2
2016-Jun-21 22:29N 46°18' W 002°08'20 0.6
2016-Jun-20 12:29N 46°06' W 002°32'2 1.5
2016-Jun-20 11:13N 46°06' W 002°34'2 3.1
2016-Jun-20 10:28N 46°06' W 002°31'21 3.1
2016-Jun-20 03:33N 46°19' W 002°07'9 8.7
2016-Jun-20 02:33N 46°24' W 001°57'9 8.5
2016-Jun-20 01:33N 46°29' W 001°47'1 1.0
2016-Jun-20 00:33N 46°30' W 001°47'1 0.8
2016-Jun-19 23:33N 46°29' W 001°47'9 8.9
2016-Jun-19 22:33N 46°24' W 001°58'14 0.3
2016-Jun-18 03:24N 46°17' W 002°15'8 9.0
2016-Jun-18 02:33N 46°20' W 002°06'9 8.8
2016-Jun-18 01:33N 46°25' W 001°55'7 7.2
2016-Jun-18 00:33N 46°30' W 001°47'4 3.8
2016-Jun-17 23:33N 46°27' W 001°50'9 9.2
2016-Jun-17 22:32N 46°22' W 002°02'2 0.1
2016-Jun-17 02:33N 46°21' W 002°04'9 8.9
2016-Jun-17 01:33N 46°26' W 001°53'6 5.8
2016-Jun-17 00:33N 46°30' W 001°47'3 3.1
2016-Jun-16 23:33N 46°27' W 001°50'10 9.5
2016-Jun-16 22:33N 46°22' W 002°01'4 0.2
2016-Jun-16 02:33N 46°20' W 002°06'9 9.2
2016-Jun-16 01:33N 46°25' W 001°55'7 7.3
2016-Jun-16 00:33N 46°30' W 001°47'4 3.9
2016-Jun-15 23:33N 46°27' W 001°51'9 9.2
2016-Jun-15 22:33N 46°21' W 002°01'10 0.5
2016-Jun-15 03:16N 46°17' W 002°14'6 8.9
2016-Jun-15 02:33N 46°20' W 002°06'9 8.5
2016-Jun-15 01:33N 46°25' W 001°56'7 7.3
2016-Jun-15 00:33N 46°30' W 001°48'  

Dump ship's entire track history